Aviation Digital Data Service (ADDS)

Output produced by TAFs form (2249 UTC 25 October 2014)
found at http://www.aviationweather.gov/adds/tafs/
 
KPSF 251911Z 2519/2618 26006KT P6SM FEW030 
     FM260100 24005KT P6SM -SHRA BKN025 OVC035 
     FM260700 27009KT 4SM -SHRA BR BKN010 OVC020 
     FM261300 29012G20KT P6SM -SHRA BKN015 OVC025